sensor_id;sensor_type;location;lat;lon;timestamp;pressure;altitude;pressure_sealevel;temperature;humidity
30516;BME280;17297;54.022;10.760;2023-05-29T00:02:05;102247.34;;;16.33;54.29
30516;BME280;17297;54.022;10.760;2023-05-29T00:04:30;102245.88;;;16.30;54.30
30516;BME280;17297;54.022;10.760;2023-05-29T00:06:56;102247.91;;;16.28;54.36
30516;BME280;17297;54.022;10.760;2023-05-29T00:09:21;102240.00;;;16.27;54.24
30516;BME280;17297;54.022;10.760;2023-05-29T00:11:46;102241.00;;;16.26;54.49
30516;BME280;17297;54.022;10.760;2023-05-29T00:14:16;102235.78;;;16.24;54.48
30516;BME280;17297;54.022;10.760;2023-05-29T00:16:45;102241.22;;;16.24;54.34
30516;BME280;17297;54.022;10.760;2023-05-29T00:19:12;102244.97;;;16.23;54.54
30516;BME280;17297;54.022;10.760;2023-05-29T00:21:38;102243.28;;;16.22;54.43
30516;BME280;17297;54.022;10.760;2023-05-29T00:24:04;102241.38;;;16.23;54.50
30516;BME280;17297;54.022;10.760;2023-05-29T00:26:30;102242.44;;;16.22;54.46
30516;BME280;17297;54.022;10.760;2023-05-29T00:28:57;102252.47;;;16.21;54.45
30516;BME280;17297;54.022;10.760;2023-05-29T00:31:22;102247.22;;;16.20;54.31
30516;BME280;17297;54.022;10.760;2023-05-29T00:33:49;102252.00;;;16.17;54.45
30516;BME280;17297;54.022;10.760;2023-05-29T00:36:15;102245.91;;;16.15;54.41
30516;BME280;17297;54.022;10.760;2023-05-29T00:38:41;102248.84;;;16.14;54.37
30516;BME280;17297;54.022;10.760;2023-05-29T00:41:07;102250.91;;;16.12;54.49
30516;BME280;17297;54.022;10.760;2023-05-29T00:43:33;102254.84;;;16.09;54.30
30516;BME280;17297;54.022;10.760;2023-05-29T00:45:58;102258.59;;;16.08;54.55
30516;BME280;17297;54.022;10.760;2023-05-29T00:48:24;102259.81;;;16.06;54.25
30516;BME280;17297;54.022;10.760;2023-05-29T00:50:50;102256.66;;;16.02;54.40
30516;BME280;17297;54.022;10.760;2023-05-29T00:53:16;102263.97;;;16.02;54.28
30516;BME280;17297;54.022;10.760;2023-05-29T00:55:41;102260.78;;;15.98;54.38
30516;BME280;17297;54.022;10.760;2023-05-29T00:58:07;102276.41;;;15.96;54.42
30516;BME280;17297;54.022;10.760;2023-05-29T01:00:34;102277.63;;;15.93;54.42
30516;BME280;17297;54.022;10.760;2023-05-29T01:03:03;102270.91;;;15.89;54.43
30516;BME280;17297;54.022;10.760;2023-05-29T01:05:32;102272.78;;;15.89;54.41
30516;BME280;17297;54.022;10.760;2023-05-29T01:07:58;102277.56;;;15.87;54.43
30516;BME280;17297;54.022;10.760;2023-05-29T01:10:23;102277.94;;;15.84;54.42
30516;BME280;17297;54.022;10.760;2023-05-29T01:12:57;102276.66;;;15.80;54.55
30516;BME280;17297;54.022;10.760;2023-05-29T01:15:37;102274.31;;;15.77;54.62
30516;BME280;17297;54.022;10.760;2023-05-29T01:18:38;102280.97;;;15.74;54.55
30516;BME280;17297;54.022;10.760;2023-05-29T01:21:34;102278.63;;;15.71;54.72
30516;BME280;17297;54.022;10.760;2023-05-29T01:24:11;102284.44;;;15.68;54.56
30516;BME280;17297;54.022;10.760;2023-05-29T01:26:47;102281.22;;;15.64;54.74
30516;BME280;17297;54.022;10.760;2023-05-29T01:29:15;102282.91;;;15.65;54.64
30516;BME280;17297;54.022;10.760;2023-05-29T01:31:44;102286.00;;;15.62;54.72
30516;BME280;17297;54.022;10.760;2023-05-29T01:34:11;102286.19;;;15.61;54.51
30516;BME280;17297;54.022;10.760;2023-05-29T01:36:36;102286.38;;;15.59;54.64
30516;BME280;17297;54.022;10.760;2023-05-29T01:39:02;102286.56;;;15.58;54.62
30516;BME280;17297;54.022;10.760;2023-05-29T01:41:29;102288.63;;;15.56;54.76
30516;BME280;17297;54.022;10.760;2023-05-29T01:43:57;102284.41;;;15.53;54.63
30516;BME280;17297;54.022;10.760;2023-05-29T01:46:23;102287.31;;;15.52;54.71
30516;BME280;17297;54.022;10.760;2023-05-29T01:48:51;102291.25;;;15.49;54.67
30516;BME280;17297;54.022;10.760;2023-05-29T01:51:16;102292.47;;;15.46;54.63
30516;BME280;17297;54.022;10.760;2023-05-29T01:53:43;102297.22;;;15.44;54.61
30516;BME280;17297;54.022;10.760;2023-05-29T01:56:09;102300.13;;;15.43;54.74
30516;BME280;17297;54.022;10.760;2023-05-29T01:58:37;102302.38;;;15.39;54.57
30516;BME280;17297;54.022;10.760;2023-05-29T02:01:03;102301.94;;;15.36;54.74
30516;BME280;17297;54.022;10.760;2023-05-29T02:03:32;102302.09;;;15.34;54.68
30516;BME280;17297;54.022;10.760;2023-05-29T02:05:58;102301.44;;;15.32;54.77
30516;BME280;17297;54.022;10.760;2023-05-29T02:08:24;102307.88;;;15.31;54.78
30516;BME280;17297;54.022;10.760;2023-05-29T02:10:50;102302.84;;;15.28;54.75
30516;BME280;17297;54.022;10.760;2023-05-29T02:13:16;102294.03;;;15.26;54.76
30516;BME280;17297;54.022;10.760;2023-05-29T02:15:42;102296.97;;;15.24;54.72
30516;BME280;17297;54.022;10.760;2023-05-29T02:18:13;102289.19;;;15.21;54.89
30516;BME280;17297;54.022;10.760;2023-05-29T02:20:39;102278.53;;;15.20;54.92
30516;BME280;17297;54.022;10.760;2023-05-29T02:23:05;102292.94;;;15.20;55.04
30516;BME280;17297;54.022;10.760;2023-05-29T02:25:30;102285.19;;;15.17;54.75
30516;BME280;17297;54.022;10.760;2023-05-29T02:27:55;102284.69;;;15.14;54.72
30516;BME280;17297;54.022;10.760;2023-05-29T02:30:21;102284.88;;;15.12;54.87
30516;BME280;17297;54.022;10.760;2023-05-29T02:32:46;102287.13;;;15.09;54.89
30516;BME280;17297;54.022;10.760;2023-05-29T02:35:12;102283.75;;;15.07;54.93
30516;BME280;17297;54.022;10.760;2023-05-29T02:37:40;102286.84;;;15.04;54.74
30516;BME280;17297;54.022;10.760;2023-05-29T02:40:06;102289.06;;;15.00;54.98
30516;BME280;17297;54.022;10.760;2023-05-29T02:42:37;102282.34;;;14.96;55.05
30516;BME280;17297;54.022;10.760;2023-05-29T02:45:03;102291.50;;;14.95;55.03
30516;BME280;17297;54.022;10.760;2023-05-29T02:47:29;102296.28;;;14.93;54.96
30516;BME280;17297;54.022;10.760;2023-05-29T02:49:56;102295.81;;;14.89;54.93
30516;BME280;17297;54.022;10.760;2023-05-29T02:52:23;102302.41;;;14.87;55.05
30516;BME280;17297;54.022;10.760;2023-05-29T02:54:49;102301.75;;;14.85;55.06
30516;BME280;17297;54.022;10.760;2023-05-29T02:57:15;102300.25;;;14.82;55.04
30516;BME280;17297;54.022;10.760;2023-05-29T02:59:40;102295.03;;;14.81;54.99
30516;BME280;17297;54.022;10.760;2023-05-29T03:02:06;102292.69;;;14.77;55.07
30516;BME280;17297;54.022;10.760;2023-05-29T03:04:32;102290.97;;;14.76;55.09
30516;BME280;17297;54.022;10.760;2023-05-29T03:06:57;102289.50;;;14.74;55.05
30516;BME280;17297;54.022;10.760;2023-05-29T03:09:23;102286.97;;;14.72;55.09
30516;BME280;17297;54.022;10.760;2023-05-29T03:11:49;102290.03;;;14.69;55.03
30516;BME280;17297;54.022;10.760;2023-05-29T03:14:16;102288.38;;;14.68;55.11
30516;BME280;17297;54.022;10.760;2023-05-29T03:16:43;102286.03;;;14.65;55.08
30516;BME280;17297;54.022;10.760;2023-05-29T03:19:09;102285.34;;;14.63;55.12
30516;BME280;17297;54.022;10.760;2023-05-29T03:21:36;102289.09;;;14.62;55.25
30516;BME280;17297;54.022;10.760;2023-05-29T03:24:02;102296.38;;;14.62;55.21
30516;BME280;17297;54.022;10.760;2023-05-29T03:26:28;102298.25;;;14.61;55.08
30516;BME280;17297;54.022;10.760;2023-05-29T03:28:54;102301.78;;;14.62;54.98
30516;BME280;17297;54.022;10.760;2023-05-29T03:31:20;102295.53;;;14.61;55.04
30516;BME280;17297;54.022;10.760;2023-05-29T03:33:46;102294.69;;;14.61;55.14
30516;BME280;17297;54.022;10.760;2023-05-29T03:36:17;102296.38;;;14.62;55.14
30516;BME280;17297;54.022;10.760;2023-05-29T03:38:43;102296.19;;;14.63;55.19
30516;BME280;17297;54.022;10.760;2023-05-29T03:41:09;102292.63;;;14.63;55.17
30516;BME280;17297;54.022;10.760;2023-05-29T03:43:34;102286.03;;;14.65;55.18
30516;BME280;17297;54.022;10.760;2023-05-29T03:46:01;102288.72;;;14.65;55.26
30516;BME280;17297;54.022;10.760;2023-05-29T03:48:29;102293.78;;;14.68;55.15
30516;BME280;17297;54.022;10.760;2023-05-29T03:50:54;102290.03;;;14.69;55.28
30516;BME280;17297;54.022;10.760;2023-05-29T03:53:26;102294.06;;;14.73;55.03
30516;BME280;17297;54.022;10.760;2023-05-29T03:55:52;102299.31;;;14.75;55.25
30516;BME280;17297;54.022;10.760;2023-05-29T03:58:17;102291.66;;;14.78;55.18
30516;BME280;17297;54.022;10.760;2023-05-29T04:00:44;102299.59;;;14.80;55.09
30516;BME280;17297;54.022;10.760;2023-05-29T04:03:12;102301.94;;;14.83;55.16
30516;BME280;17297;54.022;10.760;2023-05-29T04:05:38;102298.00;;;14.86;55.21
30516;BME280;17297;54.022;10.760;2023-05-29T04:08:03;102312.91;;;14.90;54.94
30516;BME280;17297;54.022;10.760;2023-05-29T04:10:32;102309.81;;;14.93;55.06
30516;BME280;17297;54.022;10.760;2023-05-29T04:13:00;102310.28;;;14.96;54.96
30516;BME280;17297;54.022;10.760;2023-05-29T04:15:27;102316.19;;;15.00;54.91
30516;BME280;17297;54.022;10.760;2023-05-29T04:17:53;102314.78;;;15.04;54.84
30516;BME280;17297;54.022;10.760;2023-05-29T04:20:18;102321.91;;;15.05;54.82
30516;BME280;17297;54.022;10.760;2023-05-29T04:22:44;102321.53;;;15.08;54.76
30516;BME280;17297;54.022;10.760;2023-05-29T04:25:09;102324.88;;;15.10;54.75
30516;BME280;17297;54.022;10.760;2023-05-29T04:27:34;102325.53;;;15.12;54.67
30516;BME280;17297;54.022;10.760;2023-05-29T04:30:05;102325.34;;;15.14;54.69
30516;BME280;17297;54.022;10.760;2023-05-29T04:32:35;102325.84;;;15.17;54.71
30516;BME280;17297;54.022;10.760;2023-05-29T04:35:01;102331.53;;;15.22;54.60
30516;BME280;17297;54.022;10.760;2023-05-29T04:37:32;102338.09;;;15.28;54.65
30516;BME280;17297;54.022;10.760;2023-05-29T04:40:07;102332.75;;;15.35;54.75
30516;BME280;17297;54.022;10.760;2023-05-29T04:42:38;102335.75;;;15.40;54.49
30516;BME280;17297;54.022;10.760;2023-05-29T04:45:08;102343.31;;;15.44;54.58
30516;BME280;17297;54.022;10.760;2023-05-29T04:47:36;102339.88;;;15.51;54.57
30516;BME280;17297;54.022;10.760;2023-05-29T04:50:11;102336.59;;;15.55;54.22
30516;BME280;17297;54.022;10.760;2023-05-29T04:52:37;102336.88;;;15.60;54.13
30516;BME280;17297;54.022;10.760;2023-05-29T04:55:07;102330.69;;;15.66;54.17
30516;BME280;17297;54.022;10.760;2023-05-29T04:57:36;102339.16;;;15.72;54.18
30516;BME280;17297;54.022;10.760;2023-05-29T05:00:03;102337.72;;;15.76;54.09
30516;BME280;17297;54.022;10.760;2023-05-29T05:02:43;102344.50;;;15.80;54.04
30516;BME280;17297;54.022;10.760;2023-05-29T05:05:09;102347.44;;;15.85;54.03
30516;BME280;17297;54.022;10.760;2023-05-29T05:07:35;102347.53;;;15.91;53.98
30516;BME280;17297;54.022;10.760;2023-05-29T05:10:05;102352.88;;;16.00;53.98
30516;BME280;17297;54.022;10.760;2023-05-29T05:12:31;102361.00;;;16.14;53.87
30516;BME280;17297;54.022;10.760;2023-05-29T05:14:58;102355.38;;;16.37;53.64
30516;BME280;17297;54.022;10.760;2023-05-29T05:17:25;102361.69;;;16.81;53.33
30516;BME280;17297;54.022;10.760;2023-05-29T05:19:52;102352.13;;;17.41;52.86
30516;BME280;17297;54.022;10.760;2023-05-29T05:22:18;102352.91;;;18.05;52.33
30516;BME280;17297;54.022;10.760;2023-05-29T05:24:47;102349.06;;;18.67;51.59
30516;BME280;17297;54.022;10.760;2023-05-29T05:27:13;102340.72;;;19.28;51.01
30516;BME280;17297;54.022;10.760;2023-05-29T05:29:38;102347.53;;;19.71;50.48
30516;BME280;17297;54.022;10.760;2023-05-29T05:32:04;102347.72;;;19.82;49.98
30516;BME280;17297;54.022;10.760;2023-05-29T05:34:29;102356.28;;;19.93;49.75
30516;BME280;17297;54.022;10.760;2023-05-29T05:36:55;102346.63;;;20.35;49.41
30516;BME280;17297;54.022;10.760;2023-05-29T05:39:21;102348.31;;;20.93;48.89
30516;BME280;17297;54.022;10.760;2023-05-29T05:41:47;102337.06;;;21.51;48.51
30516;BME280;17297;54.022;10.760;2023-05-29T05:44:17;102347.84;;;21.83;47.92
30516;BME280;17297;54.022;10.760;2023-05-29T05:46:45;102350.19;;;21.79;47.43
30516;BME280;17297;54.022;10.760;2023-05-29T05:49:11;102342.91;;;21.55;47.14
30516;BME280;17297;54.022;10.760;2023-05-29T05:51:37;102342.38;;;21.21;47.14
30516;BME280;17297;54.022;10.760;2023-05-29T05:54:02;102340.16;;;20.86;47.32
30516;BME280;17297;54.022;10.760;2023-05-29T05:56:29;102341.06;;;20.48;47.07
30516;BME280;17297;54.022;10.760;2023-05-29T05:58:55;102347.56;;;20.16;47.66
30516;BME280;17297;54.022;10.760;2023-05-29T06:01:21;102350.22;;;19.84;47.55
30516;BME280;17297;54.022;10.760;2023-05-29T06:03:48;102345.47;;;19.59;47.51
30516;BME280;17297;54.022;10.760;2023-05-29T06:06:13;102342.56;;;19.34;48.13
30516;BME280;17297;54.022;10.760;2023-05-29T06:08:41;102345.75;;;19.11;48.00
30516;BME280;17297;54.022;10.760;2023-05-29T06:11:07;102339.91;;;18.88;48.29
30516;BME280;17297;54.022;10.760;2023-05-29T06:13:36;102343.63;;;18.67;48.31
30516;BME280;17297;54.022;10.760;2023-05-29T06:16:07;102345.47;;;18.46;48.89
30516;BME280;17297;54.022;10.760;2023-05-29T06:18:32;102350.25;;;18.31;48.79
30516;BME280;17297;54.022;10.760;2023-05-29T06:20:58;102368.63;;;18.16;48.93
30516;BME280;17297;54.022;10.760;2023-05-29T06:23:25;102366.72;;;18.03;48.91
30516;BME280;17297;54.022;10.760;2023-05-29T06:25:50;102354.72;;;17.91;49.15
30516;BME280;17297;54.022;10.760;2023-05-29T06:28:16;102356.78;;;17.82;49.12
30516;BME280;17297;54.022;10.760;2023-05-29T06:30:42;102346.88;;;17.74;49.36
30516;BME280;17297;54.022;10.760;2023-05-29T06:33:08;102353.75;;;17.70;49.24
30516;BME280;17297;54.022;10.760;2023-05-29T06:35:36;102343.91;;;17.69;49.36
30516;BME280;17297;54.022;10.760;2023-05-29T06:38:01;102351.88;;;17.71;49.46
30516;BME280;17297;54.022;10.760;2023-05-29T06:40:27;102352.31;;;17.74;49.54
30516;BME280;17297;54.022;10.760;2023-05-29T06:42:52;102347.34;;;17.85;49.42
30516;BME280;17297;54.022;10.760;2023-05-29T06:45:31;102353.09;;;18.03;49.21
30516;BME280;17297;54.022;10.760;2023-05-29T06:47:57;102354.00;;;18.23;49.04
30516;BME280;17297;54.022;10.760;2023-05-29T06:50:24;102355.78;;;18.64;48.72
30516;BME280;17297;54.022;10.760;2023-05-29T06:52:49;102367.16;;;18.95;48.23
30516;BME280;17297;54.022;10.760;2023-05-29T06:55:34;102360.03;;;19.13;48.05
30516;BME280;17297;54.022;10.760;2023-05-29T06:58:01;102358.53;;;19.18;47.17
30516;BME280;17297;54.022;10.760;2023-05-29T07:00:26;102366.09;;;19.15;47.42
30516;BME280;17297;54.022;10.760;2023-05-29T07:03:11;102376.38;;;19.13;47.67
30516;BME280;17297;54.022;10.760;2023-05-29T07:05:36;102380.38;;;19.11;47.69
30516;BME280;17297;54.022;10.760;2023-05-29T07:08:03;102375.97;;;19.10;47.34
30516;BME280;17297;54.022;10.760;2023-05-29T07:10:30;102376.59;;;19.12;47.59
30516;BME280;17297;54.022;10.760;2023-05-29T07:12:55;102377.84;;;19.16;47.61
30516;BME280;17297;54.022;10.760;2023-05-29T07:15:21;102378.47;;;19.18;47.21
30516;BME280;17297;54.022;10.760;2023-05-29T07:17:46;102377.44;;;19.19;47.15
30516;BME280;17297;54.022;10.760;2023-05-29T07:20:18;102378.47;;;19.25;46.86
30516;BME280;17297;54.022;10.760;2023-05-29T07:22:46;102387.50;;;19.25;46.51
30516;BME280;17297;54.022;10.760;2023-05-29T07:25:11;102382.06;;;19.25;46.88
30516;BME280;17297;54.022;10.760;2023-05-29T07:27:37;102382.06;;;19.25;46.85
30516;BME280;17297;54.022;10.760;2023-05-29T07:30:03;102389.59;;;19.30;46.69
30516;BME280;17297;54.022;10.760;2023-05-29T07:32:31;102383.72;;;19.33;46.47
30516;BME280;17297;54.022;10.760;2023-05-29T07:34:56;102380.75;;;19.34;46.18
30516;BME280;17297;54.022;10.760;2023-05-29T07:37:22;102386.22;;;19.34;45.95
30516;BME280;17297;54.022;10.760;2023-05-29T07:39:47;102387.06;;;19.35;45.95
30516;BME280;17297;54.022;10.760;2023-05-29T07:42:48;102395.69;;;19.32;46.33
30516;BME280;17297;54.022;10.760;2023-05-29T07:45:13;102386.63;;;19.31;46.36
30516;BME280;17297;54.022;10.760;2023-05-29T07:47:38;102383.91;;;19.31;46.29
30516;BME280;17297;54.022;10.760;2023-05-29T07:50:05;102386.63;;;19.31;46.26
30516;BME280;17297;54.022;10.760;2023-05-29T07:52:31;102385.59;;;19.32;46.19
30516;BME280;17297;54.022;10.760;2023-05-29T07:54:57;102380.97;;;19.33;46.39
30516;BME280;17297;54.022;10.760;2023-05-29T07:57:23;102386.22;;;19.34;46.16
30516;BME280;17297;54.022;10.760;2023-05-29T07:59:51;102391.25;;;19.37;46.09
30516;BME280;17297;54.022;10.760;2023-05-29T08:02:17;102389.81;;;19.35;45.66
30516;BME280;17297;54.022;10.760;2023-05-29T08:04:54;102401.34;;;19.30;45.98
30516;BME280;17297;54.022;10.760;2023-05-29T08:07:19;102398.00;;;19.28;46.05
30516;BME280;17297;54.022;10.760;2023-05-29T08:09:45;102395.03;;;19.30;46.15
30516;BME280;17297;54.022;10.760;2023-05-29T08:12:10;102391.06;;;19.26;46.40
30516;BME280;17297;54.022;10.760;2023-05-29T08:14:36;102392.53;;;19.28;46.38
30516;BME280;17297;54.022;10.760;2023-05-29T08:17:02;102385.63;;;19.26;45.91
30516;BME280;17297;54.022;10.760;2023-05-29T08:19:28;102389.59;;;19.23;45.90
30516;BME280;17297;54.022;10.760;2023-05-29T08:21:53;102383.72;;;19.20;45.95
30516;BME280;17297;54.022;10.760;2023-05-29T08:24:18;102389.19;;;19.20;45.87
30516;BME280;17297;54.022;10.760;2023-05-29T08:26:45;102388.34;;;19.19;45.96
30516;BME280;17297;54.022;10.760;2023-05-29T08:29:10;102387.91;;;19.15;45.95
30516;BME280;17297;54.022;10.760;2023-05-29T08:31:36;102393.59;;;19.14;46.14
30516;BME280;17297;54.022;10.760;2023-05-29T08:34:01;102388.78;;;19.16;46.25
30516;BME280;17297;54.022;10.760;2023-05-29T08:36:27;102393.56;;;19.21;46.39
30516;BME280;17297;54.022;10.760;2023-05-29T08:38:53;102392.31;;;19.23;46.14
30516;BME280;17297;54.022;10.760;2023-05-29T08:41:25;102393.38;;;19.22;46.05
30516;BME280;17297;54.022;10.760;2023-05-29T08:43:52;102404.50;;;19.21;46.10
30516;BME280;17297;54.022;10.760;2023-05-29T08:46:18;102400.69;;;19.22;45.77
30516;BME280;17297;54.022;10.760;2023-05-29T08:48:49;102401.75;;;19.21;45.59
30516;BME280;17297;54.022;10.760;2023-05-29T08:51:19;102396.53;;;19.19;45.56
30516;BME280;17297;54.022;10.760;2023-05-29T08:53:46;102394.63;;;19.20;45.63
30516;BME280;17297;54.022;10.760;2023-05-29T08:56:11;102402.19;;;19.18;45.19
30516;BME280;17297;54.022;10.760;2023-05-29T08:58:37;102409.13;;;19.13;45.52
30516;BME280;17297;54.022;10.760;2023-05-29T09:01:03;102404.28;;;19.15;45.70
30516;BME280;17297;54.022;10.760;2023-05-29T09:03:29;102402.00;;;19.19;45.31
30516;BME280;17297;54.022;10.760;2023-05-29T09:05:58;102399.69;;;19.23;45.55
30516;BME280;17297;54.022;10.760;2023-05-29T09:08:28;102395.06;;;19.23;45.40
30516;BME280;17297;54.022;10.760;2023-05-29T09:10:57;102389.78;;;19.22;45.37
30516;BME280;17297;54.022;10.760;2023-05-29T09:13:23;102394.63;;;19.26;45.65
30516;BME280;17297;54.022;10.760;2023-05-29T09:15:48;102399.84;;;19.34;45.13
30516;BME280;17297;54.022;10.760;2023-05-29T09:18:16;102408.06;;;19.41;45.51
30516;BME280;17297;54.022;10.760;2023-05-29T09:20:42;102405.09;;;19.49;45.47
30516;BME280;17297;54.022;10.760;2023-05-29T09:23:09;102413.25;;;19.56;45.05
30516;BME280;17297;54.022;10.760;2023-05-29T09:25:40;102405.72;;;19.65;44.75
30516;BME280;17297;54.022;10.760;2023-05-29T09:28:08;102396.03;;;19.69;44.32
30516;BME280;17297;54.022;10.760;2023-05-29T09:30:43;102400.66;;;19.61;44.18
30516;BME280;17297;54.022;10.760;2023-05-29T09:33:10;102399.00;;;19.54;44.06
30516;BME280;17297;54.022;10.760;2023-05-29T09:35:44;102401.09;;;19.52;44.17
30516;BME280;17297;54.022;10.760;2023-05-29T09:38:17;102399.41;;;19.57;44.61
30516;BME280;17297;54.022;10.760;2023-05-29T09:40:43;102409.28;;;19.65;44.31
30516;BME280;17297;54.022;10.760;2023-05-29T09:43:14;102402.13;;;19.71;43.75
30516;BME280;17297;54.022;10.760;2023-05-29T09:45:43;102407.41;;;19.72;44.04
30516;BME280;17297;54.022;10.760;2023-05-29T09:48:21;102402.78;;;19.73;44.04
30516;BME280;17297;54.022;10.760;2023-05-29T09:50:47;102411.16;;;19.78;43.83
30516;BME280;17297;54.022;10.760;2023-05-29T09:53:22;102409.28;;;19.78;43.31
30516;BME280;17297;54.022;10.760;2023-05-29T09:55:54;102404.84;;;19.77;44.02
30516;BME280;17297;54.022;10.760;2023-05-29T09:58:21;102404.03;;;19.70;43.75
30516;BME280;17297;54.022;10.760;2023-05-29T10:00:48;102402.53;;;19.74;43.94
30516;BME280;17297;54.022;10.760;2023-05-29T10:03:15;102403.81;;;19.78;43.54
30516;BME280;17297;54.022;10.760;2023-05-29T10:05:41;102406.13;;;19.81;43.20
30516;BME280;17297;54.022;10.760;2023-05-29T10:08:11;102407.56;;;19.84;43.30
30516;BME280;17297;54.022;10.760;2023-05-29T10:10:37;102398.75;;;19.89;43.36
30516;BME280;17297;54.022;10.760;2023-05-29T10:13:06;102401.22;;;19.97;43.44
30516;BME280;17297;54.022;10.760;2023-05-29T10:15:32;102403.94;;;20.03;43.47
30516;BME280;17297;54.022;10.760;2023-05-29T10:18:03;102407.91;;;20.07;43.11
30516;BME280;17297;54.022;10.760;2023-05-29T10:20:31;102410.22;;;20.11;43.01
30516;BME280;17297;54.022;10.760;2023-05-29T10:23:00;102409.56;;;20.08;42.68
30516;BME280;17297;54.022;10.760;2023-05-29T10:25:29;102415.47;;;20.05;42.72
30516;BME280;17297;54.022;10.760;2023-05-29T10:27:57;102412.97;;;20.04;42.38
30516;BME280;17297;54.022;10.760;2023-05-29T10:30:42;102406.03;;;20.01;42.76
30516;BME280;17297;54.022;10.760;2023-05-29T10:36:19;102390.47;;;20.02;43.45
30516;BME280;17297;54.022;10.760;2023-05-29T10:38:48;102385.22;;;20.07;42.97
30516;BME280;17297;54.022;10.760;2023-05-29T10:43:54;102382.69;;;20.05;42.54
30516;BME280;17297;54.022;10.760;2023-05-29T10:46:21;102379.53;;;20.08;41.86
30516;BME280;17297;54.022;10.760;2023-05-29T10:49:18;102373.66;;;20.05;41.37
30516;BME280;17297;54.022;10.760;2023-05-29T10:51:44;102380.00;;;19.99;41.73
30516;BME280;17297;54.022;10.760;2023-05-29T10:54:10;102377.69;;;19.96;41.53
30516;BME280;17297;54.022;10.760;2023-05-29T10:56:36;102382.31;;;19.95;41.89
30516;BME280;17297;54.022;10.760;2023-05-29T10:59:01;102375.19;;;19.94;41.82
30516;BME280;17297;54.022;10.760;2023-05-29T11:01:33;102380.25;;;19.91;41.66
30516;BME280;17297;54.022;10.760;2023-05-29T11:06:47;102369.34;;;19.91;40.82
30516;BME280;17297;54.022;10.760;2023-05-29T11:14:47;102373.19;;;19.70;41.22
30516;BME280;17297;54.022;10.760;2023-05-29T11:17:32;102366.63;;;19.77;41.47
30516;BME280;17297;54.022;10.760;2023-05-29T11:20:02;102360.31;;;19.83;41.24
30516;BME280;17297;54.022;10.760;2023-05-29T11:23:01;102361.97;;;19.91;41.29
30516;BME280;17297;54.022;10.760;2023-05-29T11:25:28;102359.63;;;19.95;41.29
30516;BME280;17297;54.022;10.760;2023-05-29T11:27:53;102370.72;;;20.00;40.60
30516;BME280;17297;54.022;10.760;2023-05-29T11:30:20;102364.00;;;20.02;40.47
30516;BME280;17297;54.022;10.760;2023-05-29T11:32:46;102365.47;;;20.05;40.60
30516;BME280;17297;54.022;10.760;2023-05-29T11:35:14;102374.06;;;20.08;40.59
30516;BME280;17297;54.022;10.760;2023-05-29T11:37:40;102366.09;;;20.07;40.58
30516;BME280;17297;54.022;10.760;2023-05-29T11:40:09;102371.78;;;20.05;40.49
30516;BME280;17297;54.022;10.760;2023-05-29T11:42:35;102365.91;;;20.02;40.09
30516;BME280;17297;54.022;10.760;2023-05-29T11:45:14;102373.03;;;20.03;40.29
30516;BME280;17297;54.022;10.760;2023-05-29T11:47:59;102372.84;;;20.04;40.03
30516;BME280;17297;54.022;10.760;2023-05-29T11:50:27;102377.47;;;20.04;40.28
30516;BME280;17297;54.022;10.760;2023-05-29T11:52:53;102375.34;;;20.06;40.18
30516;BME280;17297;54.022;10.760;2023-05-29T11:55:20;102370.06;;;20.11;39.50
30516;BME280;17297;54.022;10.760;2023-05-29T11:57:47;102373.00;;;20.16;39.20
30516;BME280;17297;54.022;10.760;2023-05-29T12:00:17;102366.03;;;20.20;39.65
30516;BME280;17297;54.022;10.760;2023-05-29T12:02:44;102360.75;;;20.25;39.65
30516;BME280;17297;54.022;10.760;2023-05-29T12:05:13;102369.13;;;20.30;39.78
30516;BME280;17297;54.022;10.760;2023-05-29T12:07:53;102362.38;;;20.33;39.85
30516;BME280;17297;54.022;10.760;2023-05-29T12:10:20;102365.34;;;20.32;39.12
30516;BME280;17297;54.022;10.760;2023-05-29T12:12:54;102356.13;;;20.26;38.99
30516;BME280;17297;54.022;10.760;2023-05-29T12:15:21;102359.50;;;20.21;39.00
30516;BME280;17297;54.022;10.760;2023-05-29T12:17:50;102350.69;;;20.19;39.18
30516;BME280;17297;54.022;10.760;2023-05-29T12:20:17;102341.00;;;20.23;38.95
30516;BME280;17297;54.022;10.760;2023-05-29T12:22:44;102340.13;;;20.29;38.69
30516;BME280;17297;54.022;10.760;2023-05-29T12:27:41;102336.56;;;20.29;38.53
30516;BME280;17297;54.022;10.760;2023-05-29T12:32:42;102349.78;;;20.32;38.41
30516;BME280;17297;54.022;10.760;2023-05-29T12:38:02;102349.41;;;20.28;38.49
30516;BME280;17297;54.022;10.760;2023-05-29T12:40:34;102350.22;;;20.29;38.35
30516;BME280;17297;54.022;10.760;2023-05-29T12:43:05;102345.16;;;20.33;37.83
30516;BME280;17297;54.022;10.760;2023-05-29T12:45:32;102343.66;;;20.37;38.23
30516;BME280;17297;54.022;10.760;2023-05-29T12:48:05;102341.94;;;20.42;37.71
30516;BME280;17297;54.022;10.760;2023-05-29T12:55:23;102344.22;;;20.52;37.17
30516;BME280;17297;54.022;10.760;2023-05-29T12:57:49;102345.91;;;20.53;37.10
30516;BME280;17297;54.022;10.760;2023-05-29T13:00:14;102340.44;;;20.53;37.10
30516;BME280;17297;54.022;10.760;2023-05-29T13:05:07;102352.16;;;20.60;37.23
30516;BME280;17297;54.022;10.760;2023-05-29T13:07:33;102346.25;;;20.63;36.35
30516;BME280;17297;54.022;10.760;2023-05-29T13:09:59;102337.38;;;20.68;36.53
30516;BME280;17297;54.022;10.760;2023-05-29T13:12:26;102355.03;;;20.72;36.36
30516;BME280;17297;54.022;10.760;2023-05-29T13:14:52;102347.22;;;20.75;36.64